createdAt,value
2023-03-04T00:01:42.971Z,41.28
2023-03-04T00:04:10.576Z,40.58
2023-03-04T00:06:38.128Z,41.53
2023-03-04T00:09:05.761Z,41.55
2023-03-04T00:11:33.328Z,38.13
2023-03-04T00:14:01.040Z,40.83
2023-03-04T00:16:28.678Z,39.90
2023-03-04T00:18:56.983Z,40.25
2023-03-04T00:23:52.209Z,37.97
2023-03-04T00:26:19.742Z,39.67
2023-03-04T00:28:48.233Z,39.17
2023-03-04T00:31:15.863Z,37.38
2023-03-04T00:33:44.220Z,33.45
2023-03-04T00:36:11.837Z,37.72
2023-03-04T00:38:39.439Z,34.95
2023-03-04T00:41:06.973Z,38.20
2023-03-04T00:43:34.976Z,38.40
2023-03-04T00:46:02.564Z,38.63
2023-03-04T00:48:30.883Z,37.60
2023-03-04T00:50:58.455Z,39.80
2023-03-04T00:53:25.972Z,38.38
2023-03-04T00:55:53.504Z,39.15
2023-03-04T00:58:21.033Z,37.33
2023-03-04T01:00:48.621Z,31.20
2023-03-04T01:03:16.464Z,40.70
2023-03-04T01:05:44.209Z,40.17
2023-03-04T01:08:11.780Z,38.85
2023-03-04T01:10:39.294Z,36.95
2023-03-04T01:13:06.836Z,39.13
2023-03-04T01:15:34.358Z,37.42
2023-03-04T01:18:01.933Z,37.42
2023-03-04T01:20:29.494Z,37.40
2023-03-04T01:22:57.006Z,37.85
2023-03-04T01:25:24.596Z,38.65
2023-03-04T01:27:53.024Z,38.60
2023-03-04T01:30:20.604Z,38.22
2023-03-04T01:32:48.122Z,37.67
2023-03-04T01:35:17.543Z,38.55
2023-03-04T01:37:45.189Z,39.10
2023-03-04T01:40:13.338Z,38.25
2023-03-04T01:42:40.883Z,40.10
2023-03-04T01:45:08.699Z,39.97
2023-03-04T01:47:36.313Z,38.83
2023-03-04T01:50:05.073Z,40.92
2023-03-04T01:52:32.633Z,38.08
2023-03-04T01:55:00.185Z,40.35
2023-03-04T01:57:27.953Z,38.03
2023-03-04T02:00:14.103Z,41.53
2023-03-04T02:02:41.547Z,38.95
2023-03-04T02:05:09.729Z,36.97
2023-03-04T02:07:37.426Z,38.40
2023-03-04T02:10:05.082Z,36.72
2023-03-04T02:12:32.633Z,38.65
2023-03-04T02:15:00.152Z,39.42
2023-03-04T02:17:28.614Z,38.50
2023-03-04T02:19:56.353Z,36.40
2023-03-04T02:22:23.899Z,37.30
2023-03-04T02:24:53.584Z,38.67
2023-03-04T02:27:22.255Z,37.33
2023-03-04T02:29:50.182Z,37.78
2023-03-04T02:32:17.869Z,38.33
2023-03-04T02:34:46.981Z,36.97
2023-03-04T02:37:14.657Z,37.55
2023-03-04T02:39:47.099Z,38.85
2023-03-04T02:42:14.647Z,38.35
2023-03-04T02:44:46.171Z,35.15
2023-03-04T02:47:14.244Z,35.00
2023-03-04T02:49:41.861Z,39.58
2023-03-04T02:52:16.317Z,38.35
2023-03-04T02:54:43.879Z,35.95
2023-03-04T02:57:12.273Z,37.60
2023-03-04T02:59:42.470Z,37.63
2023-03-04T03:02:13.969Z,36.50
2023-03-04T03:04:41.624Z,40.03
2023-03-04T03:07:13.008Z,38.05
2023-03-04T03:09:40.801Z,38.28
2023-03-04T03:12:08.420Z,37.70
2023-03-04T03:14:35.920Z,38.72
2023-03-04T03:17:05.226Z,38.97
2023-03-04T03:19:32.729Z,39.95
2023-03-04T03:22:03.124Z,38.63
2023-03-04T03:24:30.782Z,39.67
2023-03-04T03:26:58.386Z,42.20
2023-03-04T03:29:25.949Z,37.20
2023-03-04T03:31:54.092Z,39.88
2023-03-04T03:34:22.017Z,39.30
2023-03-04T03:36:50.461Z,40.05
2023-03-04T03:39:18.018Z,39.55
2023-03-04T03:41:45.602Z,39.85
2023-03-04T03:44:13.138Z,38.55
2023-03-04T03:46:40.667Z,40.53
2023-03-04T03:49:08.219Z,28.42
2023-03-04T03:51:35.721Z,34.92
2023-03-04T03:54:03.246Z,38.50
2023-03-04T03:56:30.772Z,36.35
2023-03-04T03:58:58.305Z,37.88
2023-03-04T04:01:25.835Z,35.80
2023-03-04T04:03:53.426Z,36.20
2023-03-04T04:06:21.010Z,36.25
2023-03-04T04:08:48.518Z,36.15
2023-03-04T04:11:16.049Z,35.60
2023-03-04T04:13:43.628Z,36.42
2023-03-04T04:16:11.555Z,36.50
2023-03-04T04:18:39.191Z,36.90
2023-03-04T04:21:06.752Z,37.03
2023-03-04T04:23:34.281Z,37.03
2023-03-04T04:26:01.771Z,34.90
2023-03-04T04:28:29.310Z,36.83
2023-03-04T04:30:56.884Z,35.42
2023-03-04T04:33:24.483Z,36.38
2023-03-04T04:35:52.092Z,37.92
2023-03-04T04:38:19.646Z,37.22
2023-03-04T04:40:47.147Z,39.88
2023-03-04T04:43:14.705Z,37.53
2023-03-04T04:45:42.691Z,37.50
2023-03-04T04:48:10.232Z,36.65
2023-03-04T04:50:37.816Z,38.70
2023-03-04T04:53:05.349Z,37.67
2023-03-04T04:55:33.287Z,39.92
2023-03-04T04:58:00.827Z,37.08
2023-03-04T05:00:28.338Z,35.97
2023-03-04T05:02:55.981Z,37.95
2023-03-04T05:05:23.524Z,36.25
2023-03-04T05:07:51.089Z,36.95
2023-03-04T05:10:18.611Z,34.03
2023-03-04T05:12:46.223Z,36.00
2023-03-04T05:15:13.739Z,24.67
2023-03-04T05:17:41.270Z,32.30
2023-03-04T05:20:09.171Z,33.08
2023-03-04T05:22:36.691Z,32.45
2023-03-04T05:25:04.263Z,35.45
2023-03-04T05:27:31.786Z,35.47
2023-03-04T05:30:01.966Z,26.38
2023-03-04T05:32:29.505Z,35.03
2023-03-04T05:34:57.110Z,36.50
2023-03-04T05:37:24.617Z,37.47
2023-03-04T05:39:52.101Z,36.60
2023-03-04T05:42:19.778Z,36.10
2023-03-04T05:44:47.329Z,35.50
2023-03-04T05:47:14.924Z,36.53
2023-03-04T05:49:42.637Z,33.92
2023-03-04T05:52:10.219Z,35.72
2023-03-04T05:54:37.730Z,35.17
2023-03-04T05:57:05.294Z,34.10
2023-03-04T05:59:32.811Z,26.35
2023-03-04T06:02:00.307Z,27.52
2023-03-04T06:04:27.817Z,36.03
2023-03-04T06:06:55.380Z,26.65
2023-03-04T06:09:22.906Z,27.35
2023-03-04T06:11:50.529Z,34.90
2023-03-04T06:14:18.175Z,36.78
2023-03-04T06:16:45.689Z,35.58
2023-03-04T06:19:13.316Z,36.67
2023-03-04T06:21:40.819Z,37.30
2023-03-04T06:24:08.371Z,35.47
2023-03-04T06:26:35.904Z,34.20
2023-03-04T06:29:03.425Z,33.97
2023-03-04T06:31:31.147Z,34.70
2023-03-04T06:33:58.744Z,32.78
2023-03-04T06:36:26.255Z,34.88
2023-03-04T06:38:53.824Z,34.35
2023-03-04T06:41:21.424Z,35.33
2023-03-04T06:43:48.950Z,34.17
2023-03-04T06:46:16.545Z,35.10
2023-03-04T06:48:44.104Z,37.03
2023-03-04T06:51:11.952Z,35.63
2023-03-04T06:53:39.539Z,35.35
2023-03-04T06:56:07.369Z,36.28
2023-03-04T06:58:34.894Z,37.15
2023-03-04T07:01:12.548Z,36.10
2023-03-04T07:03:40.129Z,38.30
2023-03-04T07:06:07.773Z,35.10
2023-03-04T07:08:35.281Z,35.30
2023-03-04T07:11:02.806Z,34.72
2023-03-04T07:13:30.375Z,34.05
2023-03-04T07:15:58.050Z,33.25
2023-03-04T07:18:25.675Z,34.20
2023-03-04T07:20:53.592Z,34.58
2023-03-04T07:23:21.153Z,33.65
2023-03-04T07:25:49.310Z,34.47
2023-03-04T07:28:17.010Z,32.70
2023-03-04T07:30:44.623Z,33.10
2023-03-04T07:33:12.239Z,32.05
2023-03-04T07:35:39.828Z,30.13
2023-03-04T07:38:07.397Z,31.92
2023-03-04T07:40:34.929Z,29.25
2023-03-04T07:43:02.558Z,31.27
2023-03-04T07:45:30.163Z,30.40
2023-03-04T07:47:58.756Z,30.73
2023-03-04T07:50:26.280Z,31.40
2023-03-04T07:52:54.247Z,30.40
2023-03-04T07:55:21.807Z,29.05
2023-03-04T07:57:49.366Z,30.45
2023-03-04T08:00:17.536Z,31.95
2023-03-04T08:02:45.558Z,29.48
2023-03-04T08:05:13.126Z,31.88
2023-03-04T08:07:40.662Z,30.42
2023-03-04T08:10:08.554Z,29.58
2023-03-04T08:12:36.518Z,30.38
2023-03-04T08:15:04.260Z,29.85
2023-03-04T08:17:31.803Z,29.42
2023-03-04T08:19:59.439Z,21.98
2023-03-04T08:22:26.975Z,31.27
2023-03-04T08:24:54.467Z,30.52
2023-03-04T08:27:22.024Z,29.10
2023-03-04T08:29:49.563Z,27.55
2023-03-04T08:32:17.319Z,29.80
2023-03-04T08:34:44.952Z,33.10
2023-03-04T08:37:12.471Z,29.67
2023-03-04T08:39:40.173Z,28.73
2023-03-04T08:42:07.712Z,30.42
2023-03-04T08:44:35.297Z,30.23
2023-03-04T08:47:02.876Z,29.35
2023-03-04T08:49:30.396Z,30.35
2023-03-04T08:51:57.909Z,29.50
2023-03-04T08:54:25.575Z,28.52
2023-03-04T08:56:53.114Z,27.65
2023-03-04T08:59:20.672Z,25.55
2023-03-04T09:01:48.233Z,29.15
2023-03-04T09:04:15.755Z,28.88
2023-03-04T09:06:43.319Z,26.20
2023-03-04T09:09:10.887Z,29.58
2023-03-04T09:11:38.519Z,25.40
2023-03-04T09:14:06.029Z,29.65
2023-03-04T09:16:33.555Z,27.73
2023-03-04T09:19:01.340Z,28.48
2023-03-04T09:21:28.867Z,29.83
2023-03-04T09:23:56.380Z,26.50
2023-03-04T09:26:24.753Z,26.98
2023-03-04T09:31:19.793Z,25.67
2023-03-04T09:33:47.401Z,25.58
2023-03-04T09:36:15.093Z,25.90
2023-03-04T09:38:42.669Z,28.25
2023-03-04T09:41:17.188Z,25.85
2023-03-04T09:43:45.212Z,25.50
2023-03-04T09:46:13.950Z,26.10
2023-03-04T09:48:44.905Z,28.25
2023-03-04T09:51:20.050Z,26.95
2023-03-04T09:54:07.909Z,26.02
2023-03-04T09:56:36.234Z,26.75
2023-03-04T10:01:38.010Z,25.33
2023-03-04T10:04:24.706Z,24.92
2023-03-04T10:06:54.436Z,23.67
2023-03-04T10:09:40.916Z,23.10
2023-03-04T10:12:10.833Z,21.50
2023-03-04T10:14:39.341Z,21.33
2023-03-04T10:17:09.930Z,21.50
2023-03-04T10:19:43.389Z,20.35
2023-03-04T10:22:16.127Z,19.60
2023-03-04T10:24:47.029Z,19.95
2023-03-04T10:27:15.500Z,18.65
2023-03-04T10:29:43.040Z,18.20
2023-03-04T10:32:15.117Z,19.63
2023-03-04T10:34:42.634Z,20.33
2023-03-04T10:37:11.625Z,20.05
2023-03-04T10:39:40.374Z,19.30
2023-03-04T10:42:24.305Z,22.13
2023-03-04T10:44:53.210Z,22.00
2023-03-04T10:47:20.732Z,20.02
2023-03-04T10:49:58.109Z,19.98
2023-03-04T10:52:41.996Z,19.90
2023-03-04T10:55:16.599Z,21.50
2023-03-04T10:57:44.490Z,21.25
2023-03-04T11:00:18.144Z,21.25
2023-03-04T11:02:46.232Z,20.88
2023-03-04T11:07:55.563Z,20.38
2023-03-04T11:10:23.695Z,21.75
2023-03-04T11:12:54.052Z,22.38
2023-03-04T11:15:27.259Z,20.27
2023-03-04T11:17:55.737Z,21.90
2023-03-04T11:20:33.180Z,21.50
2023-03-04T11:23:21.033Z,19.77
2023-03-04T11:25:49.612Z,20.52
2023-03-04T11:28:20.140Z,19.90
2023-03-04T11:30:47.648Z,20.77
2023-03-04T11:33:18.229Z,20.63
2023-03-04T11:35:58.152Z,20.13
2023-03-04T11:38:28.045Z,20.65
2023-03-04T11:40:56.243Z,21.88
2023-03-04T11:43:26.082Z,22.42
2023-03-04T11:45:53.598Z,21.13
2023-03-04T11:48:43.329Z,21.73
2023-03-04T11:51:29.679Z,20.83
2023-03-04T11:54:00.276Z,21.02
2023-03-04T11:56:44.868Z,18.75
2023-03-04T11:59:15.430Z,21.65
2023-03-04T12:02:01.776Z,21.38
2023-03-04T12:04:29.367Z,21.10
2023-03-04T12:07:16.360Z,21.10
2023-03-04T12:09:52.811Z,20.05
2023-03-04T12:12:23.069Z,20.33
2023-03-04T12:14:56.484Z,19.98
2023-03-04T12:17:27.151Z,20.13
2023-03-04T12:19:58.372Z,21.75
2023-03-04T12:22:29.153Z,19.95
2023-03-04T12:25:02.635Z,20.45
2023-03-04T12:27:42.160Z,20.10
2023-03-04T12:30:12.509Z,18.77
2023-03-04T12:33:00.496Z,20.33
2023-03-04T12:35:34.565Z,18.85
2023-03-04T12:38:04.677Z,17.40
2023-03-04T12:40:35.238Z,16.75
2023-03-04T12:43:10.466Z,17.55
2023-03-04T12:45:40.881Z,16.33
2023-03-04T12:48:13.222Z,17.35
2023-03-04T12:50:54.184Z,18.67
2023-03-04T12:53:31.806Z,17.20
2023-03-04T12:55:59.340Z,16.58
2023-03-04T12:58:30.868Z,15.98
2023-03-04T13:01:15.813Z,17.42
2023-03-04T13:03:46.384Z,17.13
2023-03-04T13:06:13.910Z,16.80
2023-03-04T13:08:45.800Z,16.08
2023-03-04T13:11:29.009Z,17.83
2023-03-04T13:14:06.605Z,16.50
2023-03-04T13:16:38.047Z,17.10
2023-03-04T13:19:25.526Z,16.25
2023-03-04T13:21:54.434Z,17.33
2023-03-04T13:24:40.791Z,15.25
2023-03-04T13:27:27.195Z,16.83
2023-03-04T13:29:54.730Z,16.58
2023-03-04T13:32:38.576Z,17.77
2023-03-04T13:35:25.042Z,19.13
2023-03-04T13:37:59.092Z,18.25
2023-03-04T13:40:33.765Z,17.05
2023-03-04T13:43:38.487Z,16.77
2023-03-04T13:46:21.243Z,17.02
2023-03-04T13:48:51.949Z,15.88
2023-03-04T13:51:29.401Z,17.15
2023-03-04T13:56:31.447Z,16.80
2023-03-04T13:59:03.455Z,16.40
2023-03-04T14:01:34.325Z,15.82
2023-03-04T14:04:02.410Z,16.73
2023-03-04T14:08:57.650Z,16.20
2023-03-04T14:11:35.473Z,15.23
2023-03-04T14:14:04.916Z,16.45
2023-03-04T14:16:33.160Z,15.30
2023-03-04T14:21:28.599Z,14.75
2023-03-04T14:24:03.608Z,15.00
2023-03-04T14:26:31.242Z,14.57
2023-03-04T14:28:59.666Z,13.30
2023-03-04T14:31:30.016Z,15.23
2023-03-04T14:34:04.443Z,13.38
2023-03-04T14:36:35.304Z,12.32
2023-03-04T14:39:03.701Z,14.48
2023-03-04T14:41:33.961Z,14.27
2023-03-04T14:44:01.567Z,13.93
2023-03-04T14:46:31.431Z,13.82
2023-03-04T14:48:59.069Z,14.57
2023-03-04T14:51:34.217Z,12.93
2023-03-04T14:54:01.816Z,12.20
2023-03-04T14:56:30.023Z,13.90
2023-03-04T15:03:54.837Z,9.82
2023-03-04T15:06:22.961Z,12.80
2023-03-04T15:09:02.501Z,13.40
2023-03-04T15:11:34.000Z,14.07
2023-03-04T15:14:01.610Z,13.43
2023-03-04T15:16:30.520Z,12.43
2023-03-04T15:18:58.144Z,13.68
2023-03-04T15:21:28.821Z,12.90
2023-03-04T15:23:56.361Z,12.73
2023-03-04T15:26:24.418Z,12.48
2023-03-04T15:28:51.930Z,13.27
2023-03-04T15:31:20.317Z,14.02
2023-03-04T15:33:47.927Z,14.13
2023-03-04T15:36:16.313Z,12.63
2023-03-04T15:38:47.885Z,13.43
2023-03-04T15:41:16.457Z,13.25
2023-03-04T15:43:44.013Z,13.95
2023-03-04T15:46:12.377Z,13.70
2023-03-04T15:48:39.937Z,14.65
2023-03-04T15:51:07.625Z,14.05
2023-03-04T15:53:39.691Z,14.82
2023-03-04T15:56:09.221Z,13.52
2023-03-04T15:58:37.145Z,14.07
2023-03-04T16:01:04.869Z,12.57
2023-03-04T16:03:32.625Z,14.43
2023-03-04T16:06:00.183Z,13.43
2023-03-04T16:08:27.696Z,14.23
2023-03-04T16:10:55.225Z,15.23
2023-03-04T16:13:23.772Z,14.55
2023-03-04T16:15:51.434Z,12.85
2023-03-04T16:18:19.467Z,13.90
2023-03-04T16:20:47.598Z,13.82
2023-03-04T16:23:19.844Z,14.10
2023-03-04T16:25:48.208Z,14.13
2023-03-04T16:30:43.289Z,14.27
2023-03-04T16:33:11.443Z,13.77
2023-03-04T16:35:39.638Z,13.63
2023-03-04T16:38:11.740Z,14.45
2023-03-04T16:40:39.369Z,14.30
2023-03-04T16:43:07.498Z,14.13
2023-03-04T16:45:37.680Z,14.50
2023-03-04T16:48:05.445Z,13.57
2023-03-04T16:50:33.017Z,10.85
2023-03-04T16:53:00.546Z,14.80
2023-03-04T16:55:28.685Z,14.55
2023-03-04T16:57:57.629Z,13.73
2023-03-04T17:00:25.607Z,14.52
2023-03-04T17:02:54.643Z,13.57
2023-03-04T17:05:22.433Z,13.95
2023-03-04T17:07:50.021Z,15.30
2023-03-04T17:10:17.673Z,11.73
2023-03-04T17:12:45.521Z,13.90
2023-03-04T17:15:13.689Z,14.60
2023-03-04T17:17:41.487Z,14.32
2023-03-04T17:20:09.978Z,15.23
2023-03-04T17:22:37.523Z,14.25
2023-03-04T17:25:05.241Z,15.77
2023-03-04T17:27:32.747Z,14.93
2023-03-04T17:30:00.355Z,10.75
2023-03-04T17:32:28.464Z,15.32
2023-03-04T17:34:56.039Z,15.68
2023-03-04T17:37:23.822Z,16.30
2023-03-04T17:39:51.360Z,17.45
2023-03-04T17:42:18.984Z,15.35
2023-03-04T17:44:46.540Z,15.45
2023-03-04T17:47:14.324Z,14.88
2023-03-04T17:49:41.872Z,15.07
2023-03-04T17:52:09.497Z,16.27
2023-03-04T17:54:37.842Z,14.77
2023-03-04T17:59:32.956Z,14.65
2023-03-04T18:02:00.568Z,15.77
2023-03-04T18:04:28.212Z,14.77
2023-03-04T18:06:55.789Z,16.10
2023-03-04T18:09:23.298Z,15.43
2023-03-04T18:11:50.858Z,14.25
2023-03-04T18:14:18.382Z,14.70
2023-03-04T18:16:45.953Z,14.40
2023-03-04T18:19:13.516Z,15.40
2023-03-04T18:21:41.099Z,15.85
2023-03-04T18:24:09.613Z,14.52
2023-03-04T18:26:37.144Z,16.77
2023-03-04T18:29:05.011Z,15.63
2023-03-04T18:31:32.639Z,16.10
2023-03-04T18:34:01.490Z,15.73
2023-03-04T18:36:29.650Z,15.40
2023-03-04T18:38:59.261Z,15.43
2023-03-04T18:41:27.872Z,15.98
2023-03-04T18:43:55.615Z,15.32
2023-03-04T18:46:30.235Z,16.70
2023-03-04T18:49:00.055Z,16.40
2023-03-04T18:51:27.622Z,16.40
2023-03-04T18:53:55.177Z,16.90
2023-03-04T18:56:28.090Z,16.40
2023-03-04T18:58:55.637Z,16.42
2023-03-04T19:01:23.391Z,15.45
2023-03-04T19:03:51.428Z,15.52
2023-03-04T19:06:18.993Z,17.33
2023-03-04T19:08:46.602Z,16.63
2023-03-04T19:11:14.597Z,17.45
2023-03-04T19:13:42.116Z,15.00
2023-03-04T19:16:09.713Z,16.98
2023-03-04T19:18:37.284Z,16.52
2023-03-04T19:21:05.456Z,17.05
2023-03-04T19:23:33.183Z,16.67
2023-03-04T19:26:00.687Z,17.42
2023-03-04T19:28:28.200Z,15.52
2023-03-04T19:30:58.972Z,16.17
2023-03-04T19:33:26.888Z,16.67
2023-03-04T19:35:54.475Z,17.45
2023-03-04T19:38:22.289Z,16.77
2023-03-04T19:40:49.788Z,17.40
2023-03-04T19:43:17.314Z,17.67
2023-03-04T19:45:44.925Z,16.33
2023-03-04T19:48:12.449Z,16.63
2023-03-04T19:50:39.970Z,17.55
2023-03-04T19:53:07.489Z,16.80
2023-03-04T19:55:37.943Z,12.82
2023-03-04T19:58:05.569Z,18.25
2023-03-04T20:00:33.162Z,16.83
2023-03-04T20:03:01.633Z,17.38
2023-03-04T20:05:29.457Z,18.98
2023-03-04T20:07:56.987Z,18.40
2023-03-04T20:10:24.521Z,17.65
2023-03-04T20:12:52.733Z,17.60
2023-03-04T20:15:20.337Z,17.83
2023-03-04T20:17:47.829Z,18.98
2023-03-04T20:20:16.330Z,18.15
2023-03-04T20:22:43.888Z,18.38
2023-03-04T20:25:11.408Z,17.50
2023-03-04T20:27:38.938Z,13.75
2023-03-04T20:30:06.751Z,19.00
2023-03-04T20:32:34.334Z,17.60
2023-03-04T20:35:01.931Z,17.67
2023-03-04T20:37:29.501Z,18.05
2023-03-04T20:39:58.018Z,18.52
2023-03-04T20:42:25.556Z,18.08
2023-03-04T20:44:53.071Z,19.27
2023-03-04T20:47:20.585Z,16.98
2023-03-04T20:49:48.128Z,17.50
2023-03-04T20:52:15.707Z,18.10
2023-03-04T20:54:43.268Z,18.38
2023-03-04T20:57:10.912Z,19.02
2023-03-04T20:59:39.016Z,19.75
2023-03-04T21:02:06.984Z,17.98
2023-03-04T21:04:34.649Z,18.25
2023-03-04T21:07:02.485Z,19.80
2023-03-04T21:09:29.992Z,18.55
2023-03-04T21:11:59.654Z,18.13
2023-03-04T21:14:28.977Z,18.45
2023-03-04T21:16:57.618Z,18.05
2023-03-04T21:19:27.242Z,17.65
2023-03-04T21:21:55.184Z,17.90
2023-03-04T21:24:23.033Z,17.27
2023-03-04T21:26:50.595Z,19.50
2023-03-04T21:29:18.828Z,18.75
2023-03-04T21:31:47.565Z,18.90
2023-03-04T21:34:16.011Z,19.25
2023-03-04T21:36:43.585Z,17.25
2023-03-04T21:39:17.936Z,18.75
2023-03-04T21:41:45.685Z,17.55
2023-03-04T21:44:22.759Z,19.90
2023-03-04T21:46:57.033Z,18.83
2023-03-04T21:51:52.009Z,13.45
2023-03-04T21:54:19.533Z,20.08
2023-03-04T21:56:47.030Z,20.20
2023-03-04T21:59:14.983Z,20.52
2023-03-04T22:01:42.633Z,19.13
2023-03-04T22:04:10.218Z,19.10
2023-03-04T22:06:39.365Z,20.70
2023-03-04T22:09:07.749Z,20.98
2023-03-04T22:11:35.335Z,20.17
2023-03-04T22:14:02.975Z,18.77
2023-03-04T22:16:30.822Z,15.30
2023-03-04T22:18:58.593Z,18.98
2023-03-04T22:21:26.166Z,19.55
2023-03-04T22:23:53.797Z,21.83
2023-03-04T22:26:34.082Z,21.45
2023-03-04T22:29:01.828Z,20.30
2023-03-04T22:31:30.475Z,19.40
2023-03-04T22:34:01.943Z,20.13
2023-03-04T22:36:29.669Z,21.77
2023-03-04T22:38:57.181Z,19.45
2023-03-04T22:41:24.809Z,21.20
2023-03-04T22:43:52.955Z,20.65
2023-03-04T22:46:22.416Z,20.02
2023-03-04T22:48:50.241Z,20.25
2023-03-04T22:51:17.793Z,20.60
2023-03-04T22:53:45.316Z,16.63
2023-03-04T22:56:13.877Z,20.35
2023-03-04T22:58:41.466Z,21.80
2023-03-04T23:01:09.088Z,20.92
2023-03-04T23:03:36.817Z,22.85
2023-03-04T23:06:06.216Z,22.25
2023-03-04T23:08:34.288Z,21.85
2023-03-04T23:11:01.895Z,21.80
2023-03-04T23:13:29.487Z,21.63
2023-03-04T23:15:57.017Z,17.20
2023-03-04T23:18:24.562Z,21.67
2023-03-04T23:20:52.259Z,22.02
2023-03-04T23:23:19.769Z,21.58
2023-03-04T23:25:49.136Z,21.90
2023-03-04T23:28:16.652Z,22.13
2023-03-04T23:30:44.173Z,21.02
2023-03-04T23:33:11.714Z,21.25
2023-03-04T23:35:39.236Z,20.58
2023-03-04T23:38:06.795Z,21.83
2023-03-04T23:40:34.338Z,20.45
2023-03-04T23:43:01.982Z,21.23
2023-03-04T23:45:29.518Z,22.10
2023-03-04T23:47:57.061Z,15.68
2023-03-04T23:50:24.581Z,23.02
2023-03-04T23:52:52.198Z,20.80
2023-03-04T23:55:20.091Z,22.77
2023-03-04T23:57:47.741Z,21.92
